createdAt,value
2019-06-10T00:03:57.790Z,50.00
2019-06-10T00:17:05.140Z,49.50
2019-06-10T00:30:12.277Z,53.80
2019-06-10T00:43:21.207Z,51.90
2019-06-10T00:56:26.387Z,48.80
2019-06-10T01:20:45.316Z,48.00
2019-06-10T01:34:08.125Z,48.60
2019-06-10T01:47:31.034Z,48.50
2019-06-10T02:00:53.755Z,48.50
2019-06-10T02:14:18.180Z,48.50
2019-06-10T02:27:41.353Z,48.40
2019-06-10T02:41:03.934Z,48.40
2019-06-10T02:54:30.909Z,48.30
2019-06-10T03:07:47.812Z,48.30
2019-06-10T03:21:12.440Z,48.30
2019-06-10T03:34:41.219Z,48.30
2019-06-10T03:47:56.263Z,48.30
2019-06-10T04:01:19.428Z,48.30
2019-06-10T04:14:42.024Z,48.60
2019-06-10T04:28:04.710Z,48.70
2019-06-10T04:41:28.057Z,48.90
2019-06-10T05:07:52.046Z,49.10
2019-06-10T05:20:59.248Z,49.40
2019-06-10T05:34:06.423Z,49.50
2019-06-10T05:47:13.592Z,49.90
2019-06-10T06:00:22.944Z,49.90
2019-06-10T06:26:35.946Z,53.00
2019-06-10T06:39:38.251Z,56.70
2019-06-10T06:53:15.373Z,57.50
2019-06-10T07:05:52.970Z,58.00
2019-06-10T07:18:59.591Z,58.20
2019-06-10T07:32:06.785Z,55.30
2019-06-10T07:45:33.376Z,53.60
2019-06-10T07:58:53.186Z,53.20
2019-06-10T08:12:16.039Z,53.30
2019-06-10T08:25:38.777Z,55.00
2019-06-10T08:52:03.858Z,55.20
2019-06-10T09:16:26.300Z,53.70
2019-06-10T09:29:51.882Z,54.50
2019-06-10T09:43:12.805Z,54.20
2019-06-10T09:56:34.760Z,54.10
2019-06-10T10:09:57.505Z,53.60
2019-06-10T10:23:22.708Z,53.80
2019-06-10T10:49:45.008Z,54.30
2019-06-10T11:02:52.754Z,54.70
2019-06-10T11:15:59.192Z,54.60
2019-06-10T11:29:06.384Z,54.70
2019-06-10T11:42:13.569Z,54.70
2019-06-10T11:55:23.146Z,54.70
2019-06-10T12:08:44.507Z,54.80
2019-06-10T12:22:07.838Z,55.00
2019-06-10T12:35:30.222Z,55.30
2019-06-10T12:48:53.995Z,55.50
2019-06-10T13:02:22.551Z,55.40
2019-06-10T13:15:38.610Z,55.40
2019-06-10T13:29:03.655Z,55.40
2019-06-10T13:42:24.228Z,55.40
